sensor_id;sensor_type;location;lat;lon;timestamp;P1;durP1;ratioP1;P2;durP2;ratioP2
79399;SDS011;68856;45.586;10.264;2024-03-08T00:02:14;15.75;;;12.35;;
79399;SDS011;68856;45.586;10.264;2024-03-08T00:04:40;18.77;;;13.75;;
79399;SDS011;68856;45.586;10.264;2024-03-08T00:07:07;15.90;;;12.30;;
79399;SDS011;68856;45.586;10.264;2024-03-08T00:09:33;15.88;;;12.77;;
79399;SDS011;68856;45.586;10.264;2024-03-08T00:11:59;17.35;;;11.82;;
79399;SDS011;68856;45.586;10.264;2024-03-08T00:14:25;21.25;;;13.38;;
79399;SDS011;68856;45.586;10.264;2024-03-08T00:16:52;15.55;;;11.27;;
79399;SDS011;68856;45.586;10.264;2024-03-08T00:19:19;15.50;;;11.63;;
79399;SDS011;68856;45.586;10.264;2024-03-08T00:21:45;16.40;;;12.60;;
79399;SDS011;68856;45.586;10.264;2024-03-08T00:24:11;16.40;;;11.85;;
79399;SDS011;68856;45.586;10.264;2024-03-08T00:26:37;16.77;;;11.75;;
79399;SDS011;68856;45.586;10.264;2024-03-08T00:29:03;17.40;;;12.18;;
79399;SDS011;68856;45.586;10.264;2024-03-08T00:31:29;16.67;;;12.13;;
79399;SDS011;68856;45.586;10.264;2024-03-08T00:33:56;15.43;;;11.80;;
79399;SDS011;68856;45.586;10.264;2024-03-08T00:36:23;14.90;;;11.90;;
79399;SDS011;68856;45.586;10.264;2024-03-08T00:38:50;15.60;;;11.60;;
79399;SDS011;68856;45.586;10.264;2024-03-08T00:41:16;15.40;;;11.90;;
79399;SDS011;68856;45.586;10.264;2024-03-08T00:43:42;16.10;;;12.07;;
79399;SDS011;68856;45.586;10.264;2024-03-08T00:46:08;16.48;;;11.02;;
79399;SDS011;68856;45.586;10.264;2024-03-08T00:48:34;15.48;;;11.65;;
79399;SDS011;68856;45.586;10.264;2024-03-08T00:51:02;14.88;;;10.80;;
79399;SDS011;68856;45.586;10.264;2024-03-08T00:53:29;17.25;;;12.25;;
79399;SDS011;68856;45.586;10.264;2024-03-08T00:55:55;16.50;;;11.93;;
79399;SDS011;68856;45.586;10.264;2024-03-08T00:58:21;16.23;;;11.77;;
79399;SDS011;68856;45.586;10.264;2024-03-08T01:00:48;16.45;;;11.73;;
79399;SDS011;68856;45.586;10.264;2024-03-08T01:03:14;16.73;;;12.18;;
79399;SDS011;68856;45.586;10.264;2024-03-08T01:05:41;17.13;;;12.32;;
79399;SDS011;68856;45.586;10.264;2024-03-08T01:08:07;16.17;;;11.70;;
79399;SDS011;68856;45.586;10.264;2024-03-08T01:10:36;15.65;;;11.25;;
79399;SDS011;68856;45.586;10.264;2024-03-08T01:13:02;17.17;;;11.60;;
79399;SDS011;68856;45.586;10.264;2024-03-08T01:15:28;16.55;;;11.13;;
79399;SDS011;68856;45.586;10.264;2024-03-08T01:17:55;16.92;;;11.57;;
79399;SDS011;68856;45.586;10.264;2024-03-08T01:20:21;15.20;;;10.75;;
79399;SDS011;68856;45.586;10.264;2024-03-08T01:22:47;18.08;;;12.00;;
79399;SDS011;68856;45.586;10.264;2024-03-08T01:25:13;18.15;;;11.90;;
79399;SDS011;68856;45.586;10.264;2024-03-08T01:27:39;18.70;;;12.02;;
79399;SDS011;68856;45.586;10.264;2024-03-08T01:30:06;17.58;;;11.88;;
79399;SDS011;68856;45.586;10.264;2024-03-08T01:32:34;16.67;;;11.38;;
79399;SDS011;68856;45.586;10.264;2024-03-08T01:35:00;15.65;;;11.40;;
79399;SDS011;68856;45.586;10.264;2024-03-08T01:37:28;17.48;;;11.32;;
79399;SDS011;68856;45.586;10.264;2024-03-08T01:39:54;16.38;;;11.85;;
79399;SDS011;68856;45.586;10.264;2024-03-08T01:42:20;16.02;;;10.73;;
79399;SDS011;68856;45.586;10.264;2024-03-08T01:44:47;18.17;;;11.52;;
79399;SDS011;68856;45.586;10.264;2024-03-08T01:47:13;18.13;;;11.13;;
79399;SDS011;68856;45.586;10.264;2024-03-08T01:49:39;14.25;;;10.48;;
79399;SDS011;68856;45.586;10.264;2024-03-08T01:52:05;14.48;;;10.68;;
79399;SDS011;68856;45.586;10.264;2024-03-08T01:54:32;17.70;;;11.77;;
79399;SDS011;68856;45.586;10.264;2024-03-08T01:56:58;14.32;;;10.70;;
79399;SDS011;68856;45.586;10.264;2024-03-08T01:59:25;17.27;;;10.93;;
79399;SDS011;68856;45.586;10.264;2024-03-08T02:01:52;18.00;;;10.57;;
79399;SDS011;68856;45.586;10.264;2024-03-08T02:04:20;15.63;;;10.80;;
79399;SDS011;68856;45.586;10.264;2024-03-08T02:06:47;14.57;;;9.00;;
79399;SDS011;68856;45.586;10.264;2024-03-08T02:09:13;13.07;;;9.35;;
79399;SDS011;68856;45.586;10.264;2024-03-08T02:11:40;13.57;;;9.40;;
79399;SDS011;68856;45.586;10.264;2024-03-08T02:14:06;15.32;;;10.18;;
79399;SDS011;68856;45.586;10.264;2024-03-08T02:16:33;14.07;;;9.40;;
79399;SDS011;68856;45.586;10.264;2024-03-08T02:18:59;12.27;;;9.32;;
79399;SDS011;68856;45.586;10.264;2024-03-08T02:21:25;16.55;;;10.50;;
79399;SDS011;68856;45.586;10.264;2024-03-08T02:23:51;14.73;;;10.32;;
79399;SDS011;68856;45.586;10.264;2024-03-08T02:26:17;16.63;;;10.35;;
79399;SDS011;68856;45.586;10.264;2024-03-08T02:28:44;12.77;;;9.35;;
79399;SDS011;68856;45.586;10.264;2024-03-08T02:31:10;14.93;;;9.95;;
79399;SDS011;68856;45.586;10.264;2024-03-08T02:33:37;15.50;;;10.30;;
79399;SDS011;68856;45.586;10.264;2024-03-08T02:36:03;13.32;;;9.52;;
79399;SDS011;68856;45.586;10.264;2024-03-08T02:38:31;19.33;;;13.48;;
79399;SDS011;68856;45.586;10.264;2024-03-08T02:40:58;14.25;;;10.05;;
79399;SDS011;68856;45.586;10.264;2024-03-08T02:43:24;14.60;;;8.85;;
79399;SDS011;68856;45.586;10.264;2024-03-08T02:45:50;12.40;;;8.95;;
79399;SDS011;68856;45.586;10.264;2024-03-08T02:48:20;13.02;;;9.23;;
79399;SDS011;68856;45.586;10.264;2024-03-08T02:50:46;15.45;;;10.43;;
79399;SDS011;68856;45.586;10.264;2024-03-08T02:53:13;14.45;;;8.35;;
79399;SDS011;68856;45.586;10.264;2024-03-08T02:55:39;12.95;;;8.70;;
79399;SDS011;68856;45.586;10.264;2024-03-08T02:58:06;14.57;;;8.93;;
79399;SDS011;68856;45.586;10.264;2024-03-08T03:00:35;12.75;;;9.40;;
79399;SDS011;68856;45.586;10.264;2024-03-08T03:03:01;11.83;;;8.93;;
79399;SDS011;68856;45.586;10.264;2024-03-08T03:05:28;11.45;;;8.43;;
79399;SDS011;68856;45.586;10.264;2024-03-08T03:07:57;13.30;;;8.27;;
79399;SDS011;68856;45.586;10.264;2024-03-08T03:10:23;12.57;;;9.07;;
79399;SDS011;68856;45.586;10.264;2024-03-08T03:12:50;12.05;;;8.38;;
79399;SDS011;68856;45.586;10.264;2024-03-08T03:15:16;13.63;;;7.70;;
79399;SDS011;68856;45.586;10.264;2024-03-08T03:17:49;10.70;;;8.02;;
79399;SDS011;68856;45.586;10.264;2024-03-08T03:20:18;12.85;;;8.57;;
79399;SDS011;68856;45.586;10.264;2024-03-08T03:23:13;12.35;;;7.75;;
79399;SDS011;68856;45.586;10.264;2024-03-08T03:25:45;13.88;;;8.43;;
79399;SDS011;68856;45.586;10.264;2024-03-08T03:28:11;12.88;;;8.60;;
79399;SDS011;68856;45.586;10.264;2024-03-08T03:30:42;13.57;;;9.95;;
79399;SDS011;68856;45.586;10.264;2024-03-08T03:33:08;15.93;;;8.48;;
79399;SDS011;68856;45.586;10.264;2024-03-08T03:35:37;11.52;;;7.72;;
79399;SDS011;68856;45.586;10.264;2024-03-08T03:38:04;11.15;;;7.65;;
79399;SDS011;68856;45.586;10.264;2024-03-08T03:40:33;13.35;;;8.77;;
79399;SDS011;68856;45.586;10.264;2024-03-08T03:43:00;13.30;;;8.52;;
79399;SDS011;68856;45.586;10.264;2024-03-08T03:45:26;11.88;;;8.48;;
79399;SDS011;68856;45.586;10.264;2024-03-08T03:47:52;12.50;;;9.05;;
79399;SDS011;68856;45.586;10.264;2024-03-08T03:50:19;12.43;;;8.95;;
79399;SDS011;68856;45.586;10.264;2024-03-08T03:52:48;12.10;;;9.05;;
79399;SDS011;68856;45.586;10.264;2024-03-08T03:55:14;12.93;;;8.07;;
79399;SDS011;68856;45.586;10.264;2024-03-08T03:57:41;14.55;;;8.52;;
79399;SDS011;68856;45.586;10.264;2024-03-08T04:00:07;11.98;;;8.65;;
79399;SDS011;68856;45.586;10.264;2024-03-08T04:02:36;15.15;;;8.88;;
79399;SDS011;68856;45.586;10.264;2024-03-08T04:05:03;12.30;;;7.68;;
79399;SDS011;68856;45.586;10.264;2024-03-08T04:07:29;13.82;;;9.35;;
79399;SDS011;68856;45.586;10.264;2024-03-08T04:09:56;15.25;;;9.07;;
79399;SDS011;68856;45.586;10.264;2024-03-08T04:12:22;13.60;;;8.85;;
79399;SDS011;68856;45.586;10.264;2024-03-08T04:14:48;13.45;;;8.52;;
79399;SDS011;68856;45.586;10.264;2024-03-08T04:17:15;11.70;;;7.78;;
79399;SDS011;68856;45.586;10.264;2024-03-08T04:19:42;14.00;;;8.75;;
79399;SDS011;68856;45.586;10.264;2024-03-08T04:22:08;12.43;;;8.18;;
79399;SDS011;68856;45.586;10.264;2024-03-08T04:24:34;11.55;;;8.02;;
79399;SDS011;68856;45.586;10.264;2024-03-08T04:27:01;12.85;;;8.60;;
79399;SDS011;68856;45.586;10.264;2024-03-08T04:29:27;14.05;;;8.45;;
79399;SDS011;68856;45.586;10.264;2024-03-08T04:31:53;12.60;;;8.38;;
79399;SDS011;68856;45.586;10.264;2024-03-08T04:34:19;11.20;;;8.25;;
79399;SDS011;68856;45.586;10.264;2024-03-08T04:36:46;13.70;;;8.27;;
79399;SDS011;68856;45.586;10.264;2024-03-08T04:39:13;10.55;;;7.97;;
79399;SDS011;68856;45.586;10.264;2024-03-08T04:41:40;13.07;;;8.20;;
79399;SDS011;68856;45.586;10.264;2024-03-08T04:44:08;13.02;;;8.02;;
79399;SDS011;68856;45.586;10.264;2024-03-08T04:46:34;11.15;;;7.82;;
79399;SDS011;68856;45.586;10.264;2024-03-08T04:49:00;13.27;;;9.30;;
79399;SDS011;68856;45.586;10.264;2024-03-08T04:51:26;13.95;;;9.20;;
79399;SDS011;68856;45.586;10.264;2024-03-08T04:53:52;15.63;;;9.50;;
79399;SDS011;68856;45.586;10.264;2024-03-08T04:56:19;13.32;;;8.18;;
79399;SDS011;68856;45.586;10.264;2024-03-08T04:58:45;13.40;;;8.43;;
79399;SDS011;68856;45.586;10.264;2024-03-08T05:01:14;20.98;;;11.00;;
79399;SDS011;68856;45.586;10.264;2024-03-08T05:03:40;12.73;;;7.57;;
79399;SDS011;68856;45.586;10.264;2024-03-08T05:06:06;15.00;;;8.63;;
79399;SDS011;68856;45.586;10.264;2024-03-08T05:08:33;12.70;;;7.95;;
79399;SDS011;68856;45.586;10.264;2024-03-08T05:10:59;15.02;;;8.70;;
79399;SDS011;68856;45.586;10.264;2024-03-08T05:13:31;13.18;;;9.07;;
79399;SDS011;68856;45.586;10.264;2024-03-08T05:15:59;13.35;;;9.25;;
79399;SDS011;68856;45.586;10.264;2024-03-08T05:18:25;13.98;;;8.77;;
79399;SDS011;68856;45.586;10.264;2024-03-08T05:20:53;14.02;;;8.65;;
79399;SDS011;68856;45.586;10.264;2024-03-08T05:23:19;13.45;;;8.02;;
79399;SDS011;68856;45.586;10.264;2024-03-08T05:25:47;10.23;;;7.60;;
79399;SDS011;68856;45.586;10.264;2024-03-08T05:28:13;15.35;;;9.25;;
79399;SDS011;68856;45.586;10.264;2024-03-08T05:30:39;14.43;;;8.85;;
79399;SDS011;68856;45.586;10.264;2024-03-08T05:33:06;13.38;;;7.90;;
79399;SDS011;68856;45.586;10.264;2024-03-08T05:35:35;10.45;;;7.95;;
79399;SDS011;68856;45.586;10.264;2024-03-08T05:38:02;13.18;;;8.23;;
79399;SDS011;68856;45.586;10.264;2024-03-08T05:40:28;15.70;;;8.15;;
79399;SDS011;68856;45.586;10.264;2024-03-08T05:42:57;12.40;;;7.90;;
79399;SDS011;68856;45.586;10.264;2024-03-08T05:45:24;10.50;;;7.75;;
79399;SDS011;68856;45.586;10.264;2024-03-08T05:47:50;13.88;;;8.30;;
79399;SDS011;68856;45.586;10.264;2024-03-08T05:50:17;9.60;;;6.97;;
79399;SDS011;68856;45.586;10.264;2024-03-08T05:52:44;11.70;;;7.18;;
79399;SDS011;68856;45.586;10.264;2024-03-08T05:55:10;10.02;;;7.47;;
79399;SDS011;68856;45.586;10.264;2024-03-08T05:57:39;11.90;;;7.68;;
79399;SDS011;68856;45.586;10.264;2024-03-08T06:00:05;9.02;;;6.20;;
79399;SDS011;68856;45.586;10.264;2024-03-08T06:02:32;8.93;;;6.90;;
79399;SDS011;68856;45.586;10.264;2024-03-08T06:04:58;11.95;;;7.18;;
79399;SDS011;68856;45.586;10.264;2024-03-08T06:07:27;12.45;;;6.70;;
79399;SDS011;68856;45.586;10.264;2024-03-08T06:09:53;10.20;;;6.90;;
79399;SDS011;68856;45.586;10.264;2024-03-08T06:12:19;12.75;;;6.45;;
79399;SDS011;68856;45.586;10.264;2024-03-08T06:14:45;9.45;;;6.63;;
79399;SDS011;68856;45.586;10.264;2024-03-08T06:17:11;11.13;;;6.78;;
79399;SDS011;68856;45.586;10.264;2024-03-08T06:19:37;11.55;;;6.65;;
79399;SDS011;68856;45.586;10.264;2024-03-08T06:22:04;10.57;;;6.68;;
79399;SDS011;68856;45.586;10.264;2024-03-08T06:24:34;10.50;;;6.25;;
79399;SDS011;68856;45.586;10.264;2024-03-08T06:29:27;11.38;;;6.80;;
79399;SDS011;68856;45.586;10.264;2024-03-08T06:31:53;9.27;;;6.85;;
79399;SDS011;68856;45.586;10.264;2024-03-08T06:34:20;9.50;;;6.10;;
79399;SDS011;68856;45.586;10.264;2024-03-08T06:36:46;9.18;;;6.70;;
79399;SDS011;68856;45.586;10.264;2024-03-08T06:39:13;9.70;;;6.72;;
79399;SDS011;68856;45.586;10.264;2024-03-08T06:41:39;11.45;;;7.03;;
79399;SDS011;68856;45.586;10.264;2024-03-08T06:44:05;9.15;;;6.75;;
79399;SDS011;68856;45.586;10.264;2024-03-08T06:46:33;9.15;;;6.57;;
79399;SDS011;68856;45.586;10.264;2024-03-08T06:48:59;10.20;;;6.80;;
79399;SDS011;68856;45.586;10.264;2024-03-08T06:51:25;13.43;;;7.20;;
79399;SDS011;68856;45.586;10.264;2024-03-08T06:53:51;9.85;;;6.78;;
79399;SDS011;68856;45.586;10.264;2024-03-08T06:56:18;11.73;;;7.40;;
79399;SDS011;68856;45.586;10.264;2024-03-08T06:58:44;11.85;;;7.28;;
79399;SDS011;68856;45.586;10.264;2024-03-08T07:01:10;13.80;;;7.25;;
79399;SDS011;68856;45.586;10.264;2024-03-08T07:03:41;11.10;;;7.25;;
79399;SDS011;68856;45.586;10.264;2024-03-08T07:06:09;9.15;;;6.70;;
79399;SDS011;68856;45.586;10.264;2024-03-08T07:08:35;9.18;;;6.85;;
79399;SDS011;68856;45.586;10.264;2024-03-08T07:11:01;9.38;;;6.68;;
79399;SDS011;68856;45.586;10.264;2024-03-08T07:13:28;9.38;;;6.65;;
79399;SDS011;68856;45.586;10.264;2024-03-08T07:15:55;10.10;;;6.50;;
79399;SDS011;68856;45.586;10.264;2024-03-08T07:18:21;10.98;;;6.65;;
79399;SDS011;68856;45.586;10.264;2024-03-08T07:20:47;10.80;;;6.90;;
79399;SDS011;68856;45.586;10.264;2024-03-08T07:23:14;10.30;;;6.72;;
79399;SDS011;68856;45.586;10.264;2024-03-08T07:26:00;9.68;;;7.07;;
79399;SDS011;68856;45.586;10.264;2024-03-08T07:28:27;9.65;;;6.72;;
79399;SDS011;68856;45.586;10.264;2024-03-08T07:30:56;12.88;;;6.85;;
79399;SDS011;68856;45.586;10.264;2024-03-08T07:33:37;14.45;;;7.20;;
79399;SDS011;68856;45.586;10.264;2024-03-08T07:36:04;11.30;;;6.85;;
79399;SDS011;68856;45.586;10.264;2024-03-08T07:38:30;8.98;;;6.40;;
79399;SDS011;68856;45.586;10.264;2024-03-08T07:40:56;8.82;;;6.47;;
79399;SDS011;68856;45.586;10.264;2024-03-08T07:43:22;10.77;;;6.95;;
79399;SDS011;68856;45.586;10.264;2024-03-08T07:45:48;8.05;;;6.25;;
79399;SDS011;68856;45.586;10.264;2024-03-08T07:48:14;9.13;;;6.85;;
79399;SDS011;68856;45.586;10.264;2024-03-08T07:50:41;10.20;;;6.55;;
79399;SDS011;68856;45.586;10.264;2024-03-08T07:53:08;11.27;;;6.53;;
79399;SDS011;68856;45.586;10.264;2024-03-08T07:55:35;10.35;;;6.85;;
79399;SDS011;68856;45.586;10.264;2024-03-08T07:58:01;9.45;;;6.32;;
79399;SDS011;68856;45.586;10.264;2024-03-08T08:00:31;10.40;;;6.63;;
79399;SDS011;68856;45.586;10.264;2024-03-08T08:02:57;12.50;;;7.78;;
79399;SDS011;68856;45.586;10.264;2024-03-08T08:05:23;10.25;;;6.93;;
79399;SDS011;68856;45.586;10.264;2024-03-08T08:07:50;9.02;;;6.32;;
79399;SDS011;68856;45.586;10.264;2024-03-08T08:10:18;9.30;;;6.63;;
79399;SDS011;68856;45.586;10.264;2024-03-08T08:12:50;9.88;;;6.63;;
79399;SDS011;68856;45.586;10.264;2024-03-08T08:15:16;9.43;;;6.30;;
79399;SDS011;68856;45.586;10.264;2024-03-08T08:17:46;8.90;;;6.47;;
79399;SDS011;68856;45.586;10.264;2024-03-08T08:20:15;10.68;;;6.88;;
79399;SDS011;68856;45.586;10.264;2024-03-08T08:22:43;11.82;;;7.10;;
79399;SDS011;68856;45.586;10.264;2024-03-08T08:25:09;11.40;;;6.82;;
79399;SDS011;68856;45.586;10.264;2024-03-08T08:30:07;9.35;;;6.68;;
79399;SDS011;68856;45.586;10.264;2024-03-08T08:32:34;11.45;;;7.45;;
79399;SDS011;68856;45.586;10.264;2024-03-08T08:35:01;12.63;;;6.97;;
79399;SDS011;68856;45.586;10.264;2024-03-08T08:37:27;13.55;;;6.95;;
79399;SDS011;68856;45.586;10.264;2024-03-08T08:39:54;9.43;;;6.90;;
79399;SDS011;68856;45.586;10.264;2024-03-08T08:42:20;11.85;;;7.50;;
79399;SDS011;68856;45.586;10.264;2024-03-08T08:44:46;8.55;;;6.78;;
79399;SDS011;68856;45.586;10.264;2024-03-08T08:47:13;10.18;;;7.35;;
79399;SDS011;68856;45.586;10.264;2024-03-08T08:49:43;11.33;;;7.00;;
79399;SDS011;68856;45.586;10.264;2024-03-08T08:52:11;10.13;;;7.22;;
79399;SDS011;68856;45.586;10.264;2024-03-08T08:54:38;7.32;;;5.50;;
79399;SDS011;68856;45.586;10.264;2024-03-08T08:57:04;8.13;;;5.35;;
79399;SDS011;68856;45.586;10.264;2024-03-08T08:59:35;8.82;;;5.82;;
79399;SDS011;68856;45.586;10.264;2024-03-08T09:02:05;8.52;;;5.80;;
79399;SDS011;68856;45.586;10.264;2024-03-08T09:04:31;7.90;;;5.68;;
79399;SDS011;68856;45.586;10.264;2024-03-08T09:06:57;6.50;;;5.47;;
79399;SDS011;68856;45.586;10.264;2024-03-08T09:09:23;8.85;;;5.57;;
79399;SDS011;68856;45.586;10.264;2024-03-08T09:11:50;8.05;;;5.07;;
79399;SDS011;68856;45.586;10.264;2024-03-08T09:14:19;6.55;;;5.20;;
79399;SDS011;68856;45.586;10.264;2024-03-08T09:16:45;6.70;;;5.70;;
79399;SDS011;68856;45.586;10.264;2024-03-08T09:19:12;9.18;;;6.28;;
79399;SDS011;68856;45.586;10.264;2024-03-08T09:21:38;8.13;;;6.00;;
79399;SDS011;68856;45.586;10.264;2024-03-08T09:24:07;7.50;;;5.95;;
79399;SDS011;68856;45.586;10.264;2024-03-08T09:26:34;6.60;;;5.10;;
79399;SDS011;68856;45.586;10.264;2024-03-08T09:29:00;5.90;;;4.55;;
79399;SDS011;68856;45.586;10.264;2024-03-08T09:31:26;8.27;;;4.93;;
79399;SDS011;68856;45.586;10.264;2024-03-08T09:33:52;4.57;;;3.60;;
79399;SDS011;68856;45.586;10.264;2024-03-08T09:36:18;4.03;;;3.45;;
79399;SDS011;68856;45.586;10.264;2024-03-08T09:38:45;3.95;;;3.55;;
79399;SDS011;68856;45.586;10.264;2024-03-08T09:41:12;4.45;;;3.92;;
79399;SDS011;68856;45.586;10.264;2024-03-08T09:43:38;5.55;;;4.40;;
79399;SDS011;68856;45.586;10.264;2024-03-08T09:46:04;5.03;;;4.53;;
79399;SDS011;68856;45.586;10.264;2024-03-08T09:48:31;8.60;;;5.28;;
79399;SDS011;68856;45.586;10.264;2024-03-08T09:50:59;7.95;;;5.53;;
79399;SDS011;68856;45.586;10.264;2024-03-08T09:53:25;7.32;;;5.35;;
79399;SDS011;68856;45.586;10.264;2024-03-08T09:55:52;7.50;;;5.47;;
79399;SDS011;68856;45.586;10.264;2024-03-08T09:58:18;7.50;;;5.57;;
79399;SDS011;68856;45.586;10.264;2024-03-08T10:00:59;9.43;;;5.78;;
79399;SDS011;68856;45.586;10.264;2024-03-08T10:03:32;7.95;;;5.82;;
79399;SDS011;68856;45.586;10.264;2024-03-08T10:05:58;6.72;;;5.25;;
79399;SDS011;68856;45.586;10.264;2024-03-08T10:08:28;6.57;;;5.30;;
79399;SDS011;68856;45.586;10.264;2024-03-08T10:10:55;8.15;;;6.10;;
79399;SDS011;68856;45.586;10.264;2024-03-08T10:13:23;9.50;;;6.13;;
79399;SDS011;68856;45.586;10.264;2024-03-08T10:15:51;8.43;;;6.68;;
79399;SDS011;68856;45.586;10.264;2024-03-08T10:18:17;10.27;;;6.72;;
79399;SDS011;68856;45.586;10.264;2024-03-08T10:20:44;8.77;;;6.70;;
79399;SDS011;68856;45.586;10.264;2024-03-08T10:23:10;11.38;;;6.95;;
79399;SDS011;68856;45.586;10.264;2024-03-08T10:25:36;9.68;;;7.30;;
79399;SDS011;68856;45.586;10.264;2024-03-08T10:28:03;8.43;;;7.15;;
79399;SDS011;68856;45.586;10.264;2024-03-08T10:30:32;8.85;;;6.18;;
79399;SDS011;68856;45.586;10.264;2024-03-08T10:32:59;9.07;;;7.20;;
79399;SDS011;68856;45.586;10.264;2024-03-08T10:35:26;10.35;;;6.97;;
79399;SDS011;68856;45.586;10.264;2024-03-08T10:37:52;12.40;;;8.15;;
79399;SDS011;68856;45.586;10.264;2024-03-08T10:40:24;9.35;;;7.32;;
79399;SDS011;68856;45.586;10.264;2024-03-08T10:42:54;12.00;;;8.32;;
79399;SDS011;68856;45.586;10.264;2024-03-08T10:50:28;11.77;;;8.55;;
79399;SDS011;68856;45.586;10.264;2024-03-08T10:52:54;11.95;;;8.60;;
79399;SDS011;68856;45.586;10.264;2024-03-08T10:55:22;13.85;;;8.18;;
79399;SDS011;68856;45.586;10.264;2024-03-08T10:57:51;11.57;;;8.23;;
79399;SDS011;68856;45.586;10.264;2024-03-08T11:00:18;13.30;;;8.70;;
79399;SDS011;68856;45.586;10.264;2024-03-08T11:02:51;10.98;;;8.20;;
79399;SDS011;68856;45.586;10.264;2024-03-08T11:05:37;15.68;;;8.68;;
79399;SDS011;68856;45.586;10.264;2024-03-08T11:08:19;12.48;;;8.13;;
79399;SDS011;68856;45.586;10.264;2024-03-08T11:10:52;12.05;;;7.47;;
79399;SDS011;68856;45.586;10.264;2024-03-08T11:13:39;12.85;;;7.78;;
79399;SDS011;68856;45.586;10.264;2024-03-08T11:16:12;11.32;;;7.47;;
79399;SDS011;68856;45.586;10.264;2024-03-08T11:18:58;14.43;;;8.10;;
79399;SDS011;68856;45.586;10.264;2024-03-08T11:21:29;15.18;;;7.63;;
79399;SDS011;68856;45.586;10.264;2024-03-08T11:24:01;16.65;;;8.43;;
79399;SDS011;68856;45.586;10.264;2024-03-08T11:26:30;13.43;;;8.55;;
79399;SDS011;68856;45.586;10.264;2024-03-08T11:31:41;16.33;;;8.98;;
79399;SDS011;68856;45.586;10.264;2024-03-08T11:34:16;14.38;;;8.38;;
79399;SDS011;68856;45.586;10.264;2024-03-08T11:36:44;12.55;;;8.63;;
79399;SDS011;68856;45.586;10.264;2024-03-08T11:39:13;14.90;;;9.25;;
79399;SDS011;68856;45.586;10.264;2024-03-08T11:41:40;10.40;;;7.72;;
79399;SDS011;68856;45.586;10.264;2024-03-08T11:44:10;13.85;;;8.23;;
79399;SDS011;68856;45.586;10.264;2024-03-08T11:46:41;13.50;;;8.77;;
79399;SDS011;68856;45.586;10.264;2024-03-08T11:49:11;9.93;;;7.82;;
79399;SDS011;68856;45.586;10.264;2024-03-08T11:51:37;13.90;;;8.55;;
79399;SDS011;68856;45.586;10.264;2024-03-08T11:54:04;15.05;;;8.70;;
79399;SDS011;68856;45.586;10.264;2024-03-08T11:56:31;11.23;;;8.45;;
79399;SDS011;68856;45.586;10.264;2024-03-08T11:58:57;13.25;;;8.27;;
79399;SDS011;68856;45.586;10.264;2024-03-08T12:01:23;13.57;;;8.65;;
79399;SDS011;68856;45.586;10.264;2024-03-08T12:03:56;12.07;;;8.55;;
79399;SDS011;68856;45.586;10.264;2024-03-08T12:06:25;15.02;;;8.60;;
79399;SDS011;68856;45.586;10.264;2024-03-08T12:08:52;13.10;;;8.40;;
79399;SDS011;68856;45.586;10.264;2024-03-08T12:11:18;11.82;;;8.68;;
79399;SDS011;68856;45.586;10.264;2024-03-08T12:13:48;11.57;;;8.48;;
79399;SDS011;68856;45.586;10.264;2024-03-08T12:16:16;12.07;;;8.30;;
79399;SDS011;68856;45.586;10.264;2024-03-08T12:18:50;11.88;;;9.18;;
79399;SDS011;68856;45.586;10.264;2024-03-08T12:21:17;14.52;;;9.25;;
79399;SDS011;68856;45.586;10.264;2024-03-08T12:23:45;13.25;;;8.07;;
79399;SDS011;68856;45.586;10.264;2024-03-08T12:26:23;12.50;;;8.75;;
79399;SDS011;68856;45.586;10.264;2024-03-08T12:28:49;13.77;;;8.60;;
79399;SDS011;68856;45.586;10.264;2024-03-08T12:31:15;14.68;;;8.70;;
79399;SDS011;68856;45.586;10.264;2024-03-08T12:33:51;12.05;;;8.00;;
79399;SDS011;68856;45.586;10.264;2024-03-08T12:36:18;12.23;;;8.40;;
79399;SDS011;68856;45.586;10.264;2024-03-08T12:38:45;13.07;;;8.18;;
79399;SDS011;68856;45.586;10.264;2024-03-08T12:41:20;12.10;;;8.55;;
79399;SDS011;68856;45.586;10.264;2024-03-08T12:43:47;13.55;;;9.77;;
79399;SDS011;68856;45.586;10.264;2024-03-08T12:46:19;12.13;;;8.25;;
79399;SDS011;68856;45.586;10.264;2024-03-08T12:48:45;11.75;;;8.30;;
79399;SDS011;68856;45.586;10.264;2024-03-08T12:51:17;12.45;;;7.45;;
79399;SDS011;68856;45.586;10.264;2024-03-08T12:53:44;10.88;;;8.02;;
79399;SDS011;68856;45.586;10.264;2024-03-08T12:56:10;13.13;;;8.32;;
79399;SDS011;68856;45.586;10.264;2024-03-08T12:58:37;16.20;;;8.65;;
79399;SDS011;68856;45.586;10.264;2024-03-08T13:01:06;15.80;;;9.18;;
79399;SDS011;68856;45.586;10.264;2024-03-08T13:03:35;12.88;;;8.88;;
79399;SDS011;68856;45.586;10.264;2024-03-08T13:06:05;9.20;;;7.72;;
79399;SDS011;68856;45.586;10.264;2024-03-08T13:08:37;11.63;;;7.65;;
79399;SDS011;68856;45.586;10.264;2024-03-08T13:11:06;10.93;;;7.53;;
79399;SDS011;68856;45.586;10.264;2024-03-08T13:13:33;12.15;;;8.57;;
79399;SDS011;68856;45.586;10.264;2024-03-08T13:16:02;11.82;;;8.18;;
79399;SDS011;68856;45.586;10.264;2024-03-08T13:18:28;12.82;;;7.53;;
79399;SDS011;68856;45.586;10.264;2024-03-08T13:20:54;10.57;;;7.75;;
79399;SDS011;68856;45.586;10.264;2024-03-08T13:23:22;12.13;;;7.30;;
79399;SDS011;68856;45.586;10.264;2024-03-08T13:25:48;11.50;;;8.05;;
79399;SDS011;68856;45.586;10.264;2024-03-08T13:28:14;12.05;;;8.40;;
79399;SDS011;68856;45.586;10.264;2024-03-08T13:30:42;11.82;;;8.43;;
79399;SDS011;68856;45.586;10.264;2024-03-08T13:33:09;15.63;;;10.95;;
79399;SDS011;68856;45.586;10.264;2024-03-08T13:35:35;12.10;;;9.75;;
79399;SDS011;68856;45.586;10.264;2024-03-08T13:38:03;11.55;;;7.13;;
79399;SDS011;68856;45.586;10.264;2024-03-08T13:40:30;10.15;;;6.88;;
79399;SDS011;68856;45.586;10.264;2024-03-08T13:42:56;11.85;;;7.15;;
79399;SDS011;68856;45.586;10.264;2024-03-08T13:45:23;11.30;;;8.63;;
79399;SDS011;68856;45.586;10.264;2024-03-08T13:47:49;10.32;;;7.22;;
79399;SDS011;68856;45.586;10.264;2024-03-08T13:50:19;11.57;;;7.80;;
79399;SDS011;68856;45.586;10.264;2024-03-08T13:52:48;12.52;;;8.73;;
79399;SDS011;68856;45.586;10.264;2024-03-08T13:55:19;10.50;;;8.02;;
79399;SDS011;68856;45.586;10.264;2024-03-08T13:57:45;11.90;;;7.68;;
79399;SDS011;68856;45.586;10.264;2024-03-08T14:00:12;13.50;;;8.55;;
79399;SDS011;68856;45.586;10.264;2024-03-08T14:02:38;10.48;;;7.38;;
79399;SDS011;68856;45.586;10.264;2024-03-08T14:05:09;11.48;;;7.57;;
79399;SDS011;68856;45.586;10.264;2024-03-08T14:07:36;9.00;;;7.55;;
79399;SDS011;68856;45.586;10.264;2024-03-08T14:10:02;9.63;;;7.32;;
79399;SDS011;68856;45.586;10.264;2024-03-08T14:12:29;12.05;;;7.35;;
79399;SDS011;68856;45.586;10.264;2024-03-08T14:14:55;8.73;;;7.15;;
79399;SDS011;68856;45.586;10.264;2024-03-08T14:17:25;9.45;;;6.60;;
79399;SDS011;68856;45.586;10.264;2024-03-08T14:19:52;8.75;;;7.22;;
79399;SDS011;68856;45.586;10.264;2024-03-08T14:22:19;13.85;;;7.60;;
79399;SDS011;68856;45.586;10.264;2024-03-08T14:24:46;10.23;;;6.38;;
79399;SDS011;68856;45.586;10.264;2024-03-08T14:27:12;10.73;;;6.95;;
79399;SDS011;68856;45.586;10.264;2024-03-08T14:29:39;12.68;;;7.45;;
79399;SDS011;68856;45.586;10.264;2024-03-08T14:32:06;9.55;;;7.38;;
79399;SDS011;68856;45.586;10.264;2024-03-08T14:34:33;13.18;;;7.65;;
79399;SDS011;68856;45.586;10.264;2024-03-08T14:36:59;12.02;;;7.50;;